Flight Track Log - Related Links

Times and Time Zones

All times are in EDT time to prevent confusion due to time zone crossing. See the N445QS flight status page for this flight to view local times or setup timezone preferences in your user account.


Time Position Orientation Groundspeed Altitude Reporting Facility
EDT Latitude Longitude Course Direction KTS MPH feet Rate Location/Type
Fri 05:06:27 PM 28.3000 -81.4500 336° Northwest 179 206 900  Level Orlando TRACON
Fri 05:07:10 PM 28.3333 -81.4667 336° Northwest 203 234 2,500 1,806 Climbing Orlando TRACON
Fri 05:08:10 PM 28.3833 -81.5000 330° Northwest 230 265 4,000 700 Climbing Orlando TRACON
Fri 05:09:10 PM 28.4333 -81.4500 41° Northeast 272 313 3,900  Descending Orlando TRACON
Fri 05:10:10 PM 28.4167 -81.3667 103° East 272 313 4,000 50 Climbing Orlando TRACON
Fri 05:11:10 PM 28.4000 -81.2833 103° East 269 310 4,000 50 Level Orlando TRACON
Fri 05:12:10 PM 28.4000 -81.2000 90° East 253 291 4,100 1,400 Climbing Orlando TRACON
Fri 05:13:10 PM 28.3833 -81.1167 103° East 277 319 6,800 3,050 Climbing Orlando TRACON
Fri 05:14:10 PM 28.3625 -81.0489 109° East 307 353 10,200 2,550 Climbing Miami Center
Fri 05:15:10 PM 28.3236 -80.9578 116° Southeast 327 376 11,900 900 Climbing Miami Center
Fri 05:16:10 PM 28.2533 -80.8586 129° Southeast 355 409 12,000 50 Climbing Miami Center
Fri 05:17:10 PM 28.1819 -80.7950 142° Southeast 361 415 12,000  Level Miami Center
Fri 05:18:10 PM 28.0961 -80.7308 147° Southeast 372 428 12,000  Level Miami Center
Fri 05:19:10 PM 28.0042 -80.6594 146° Southeast 367 422 12,000  Level Miami Center
Fri 05:20:10 PM 27.9158 -80.6025 150° Southeast 367 422 12,000  Level Miami Center
Fri 05:21:10 PM 27.8361 -80.5317 142° Southeast 367 422 12,000 50 Level Miami Center
Fri 05:22:10 PM 27.7606 -80.4731 146° Southeast 367 422 12,100  Climbing Miami Center
Fri 05:23:10 PM 27.6675 -80.4372 161° South 361 415 12,000 -50 Descending Miami Center
Fri 05:24:10 PM 27.5664 -80.3872 156° South 356 410 12,000  Level Miami Center
Fri 05:25:10 PM 27.4867 -80.3144 141° Southeast 366 421 12,000  Level Miami Center
Fri 05:26:10 PM 27.4114 -80.2350 137° Southeast 377 434 12,000 -650 Level Miami Center
Fri 05:27:10 PM 27.3522 -80.1725 137° Southeast 349 402 10,700 -1,200 Descending Miami Center
Fri 05:28:10 PM 27.2589 -80.1464 166° South 315 362 9,600 -1,300 Descending Miami Center
Fri 05:29:10 PM 27.1797 -80.1397 176° South 297 342 8,100 -1,500 Descending Miami Center
Fri 05:30:10 PM 27.1025 -80.1328 175° South 292 336 6,600 -1,450 Descending Miami Center
Fri 05:31:10 PM 27.0317 -80.1261 175° South 292 336 5,200 -800 Descending Miami Center
Fri 05:32:10 PM 26.9567 -80.1217 177° South 286 329 5,000 -300 Descending Miami Center
Fri 05:33:10 PM 26.8775 -80.1147 176° South 266 306 4,600 -900 Descending Miami Center
Fri 05:34:10 PM 26.8103 -80.1314 192° South 259 298 3,200 -1,400 Descending Miami Center
Fri 05:36:00 PM 26.6832 -80.0956 261° West  Level Estimated
Fri 05:43:00 PM 26.6832 -80.0956 110° East  Level Estimated

Login

Don't have an account? Register now (free) for customized features, flight alerts, and more!